Time;durP1;ratioP1;P1;durP2;ratioP2;P2;SDS_P1;SDS_P2;PMS_P1;PMS_P2;Temp;Humidity;BMP_temperature;BMP_pressure;BME280_temperature;BME280_humidity;BME280_pressure;Samples;Min_cycle;Max_cycle;Signal;HPM_P1;HPM_P2
2021/03/25 00:01:09;;;;;;;23.35;14.63;;;9.20;98.20;;;;;;5057614;28;20028;-74
2021/03/25 00:03:36;;;;;;;28.10;14.52;;;9.10;98.30;;;;;;5059255;28;20017;-73
2021/03/25 00:06:03;;;;;;;23.33;14.95;;;9.10;99.20;;;;;;5058914;28;20030;-73
2021/03/25 00:08:29;;;;;;;24.58;12.68;;;9.20;99.00;;;;;;5058281;28;20032;-76
2021/03/25 00:10:55;;;;;;;24.45;14.32;;;9.30;98.80;;;;;;5057361;28;20021;-73
2021/03/25 00:13:21;;;;;;;20.80;13.40;;;9.30;98.70;;;;;;5058186;28;20442;-76
2021/03/25 00:15:47;;;;;;;20.60;12.98;;;9.10;98.20;;;;;;5057390;28;20052;-74
2021/03/25 00:18:14;;;;;;;24.88;13.93;;;9.00;99.00;;;;;;5057677;28;20036;-75
2021/03/25 00:20:40;;;;;;;26.48;14.32;;;9.00;99.00;;;;;;5058714;28;20021;-77
2021/03/25 00:23:06;;;;;;;28.17;14.02;;;9.10;99.00;;;;;;5056473;28;20043;-71
2021/03/25 00:25:37;;;;;;;26.90;14.70;;;9.10;99.30;;;;;;5058775;28;20052;-74
2021/03/25 00:28:04;;;;;;;26.85;13.57;;;9.10;99.20;;;;;;5058708;28;20040;-74
2021/03/25 00:30:31;;;;;;;29.10;14.32;;;9.10;99.40;;;;;;5058470;28;20036;-72
2021/03/25 00:32:59;;;;;;;22.33;13.45;;;9.10;99.40;;;;;;5057765;28;20028;-72
2021/03/25 00:35:26;;;;;;;23.33;13.95;;;9.00;98.80;;;;;;5056774;28;20054;-72
2021/03/25 00:37:52;;;;;;;23.52;13.73;;;9.00;98.70;;;;;;5056721;28;20056;-72
2021/03/25 00:40:18;;;;;;;22.65;12.88;;;8.90;99.00;;;;;;5057402;28;20079;-71
2021/03/25 00:42:44;;;;;;;21.98;13.02;;;9.00;99.30;;;;;;5056755;28;20125;-71
2021/03/25 00:45:14;;;;;;;23.58;12.98;;;8.90;99.20;;;;;;5056751;28;20060;-71
2021/03/25 00:47:40;;;;;;;23.77;12.52;;;8.70;99.40;;;;;;5055436;28;20028;-74
2021/03/25 00:50:13;;;;;;;24.95;13.88;;;8.90;99.30;;;;;;5055831;28;20059;-71
2021/03/25 00:52:39;;;;;;;20.75;13.07;;;8.80;99.30;;;;;;5055622;28;20454;-73
2021/03/25 00:55:05;;;;;;;20.83;13.75;;;8.80;99.10;;;;;;5054631;28;20025;-73
2021/03/25 00:57:31;;;;;;;28.17;14.57;;;8.60;99.70;;;;;;5056145;28;20025;-74
2021/03/25 00:59:57;;;;;;;29.05;15.80;;;8.50;99.60;;;;;;5054738;28;20021;-72
2021/03/25 01:02:22;;;;;;;21.83;14.45;;;8.60;99.90;;;;;;5053641;28;20021;-72
2021/03/25 01:04:48;;;;;;;26.83;14.48;;;8.60;99.90;;;;;;5053519;28;20021;-72
2021/03/25 01:07:22;;;;;;;22.60;14.15;;;8.70;99.90;;;;;;5054360;28;20462;-71
2021/03/25 01:09:48;;;;;;;24.13;13.10;;;8.60;99.90;;;;;;5055453;28;20104;-71
2021/03/25 01:12:13;;;;;;;22.08;13.93;;;8.60;99.90;;;;;;5054535;28;20109;-74
2021/03/25 01:14:39;;;;;;;21.15;13.27;;;8.60;99.90;;;;;;5055814;28;20116;-71
2021/03/25 01:17:05;;;;;;;21.55;13.30;;;8.60;99.90;;;;;;5041571;28;20042;-72
2021/03/25 01:19:33;;;;;;;24.27;13.60;;;8.60;99.90;;;;;;5016660;28;20018;-71
2021/03/25 01:21:59;;;;;;;20.50;12.80;;;8.50;99.90;;;;;;5034848;28;20059;-71
2021/03/25 01:24:25;;;;;;;22.15;12.77;;;8.60;99.90;;;;;;5033967;28;20018;-72
2021/03/25 01:26:52;;;;;;;23.52;13.75;;;8.50;99.90;;;;;;5034545;28;20108;-72
2021/03/25 01:29:19;;;;;;;20.13;12.77;;;8.50;99.90;;;;;;5016971;28;20104;-72
2021/03/25 01:31:45;;;;;;;23.48;13.38;;;8.50;99.90;;;;;;5017212;28;20124;-71
2021/03/25 01:34:14;;;;;;;23.85;13.10;;;8.50;99.90;;;;;;5016332;28;20029;-70
2021/03/25 01:36:40;;;;;;;22.58;13.45;;;8.50;99.90;;;;;;5034268;28;20100;-72
2021/03/25 01:39:06;;;;;;;26.33;12.60;;;8.50;99.90;;;;;;5016818;28;20463;-72
2021/03/25 01:41:33;;;;;;;25.67;14.15;;;8.50;99.90;;;;;;5034196;28;20104;-72
2021/03/25 01:43:59;;;;;;;25.77;13.80;;;8.50;99.90;;;;;;5017379;28;20029;-75
2021/03/25 01:46:27;;;;;;;31.05;14.80;;;8.50;99.90;;;;;;5034508;28;20052;-74
2021/03/25 01:48:57;;;;;;;21.65;13.98;;;8.40;99.90;;;;;;5038698;28;20025;-74
2021/03/25 01:51:57;;;;;;;21.70;13.35;;;8.50;99.90;;;;;;5021780;28;20021;-73
2021/03/25 01:54:53;;;;;;;21.02;13.45;;;8.30;99.90;;;;;;5039205;28;20048;-73
2021/03/25 01:57:58;;;;;;;20.60;13.52;;;8.40;99.90;;;;;;5039227;28;20021;-71
2021/03/25 02:00:38;;;;;;;22.48;13.80;;;8.30;99.90;;;;;;5021274;28;20033;-73
2021/03/25 02:03:36;;;;;;;21.27;13.57;;;8.30;99.90;;;;;;5021802;28;20060;-72
2021/03/25 02:06:14;;;;;;;19.80;12.63;;;8.30;99.90;;;;;;5020228;28;20332;-70
2021/03/25 02:08:54;;;;;;;24.33;13.63;;;8.30;99.90;;;;;;5018662;28;20021;-73
2021/03/25 02:11:33;;;;;;;22.05;12.38;;;8.30;99.90;;;;;;5036490;28;20025;-71
2021/03/25 02:14:33;;;;;;;23.00;12.93;;;8.30;99.90;;;;;;5036867;28;20030;-72
2021/03/25 02:17:08;;;;;;;26.17;12.82;;;8.20;99.90;;;;;;5036029;28;20105;-72
2021/03/25 02:20:09;;;;;;;19.77;12.85;;;8.20;99.90;;;;;;5017147;28;20117;-71
2021/03/25 02:23:16;;;;;;;25.40;14.13;;;8.00;99.90;;;;;;5016501;28;20041;-70
2021/03/25 02:25:57;;;;;;;22.58;13.20;;;8.00;99.90;;;;;;5033884;28;20025;-71
2021/03/25 02:28:47;;;;;;;17.83;12.27;;;8.00;99.90;;;;;;5016034;28;20060;-71
2021/03/25 02:31:19;;;;;;;28.65;14.88;;;8.00;99.90;;;;;;5016102;28;20470;-70
2021/03/25 02:33:48;;;;;;;26.27;14.45;;;7.90;99.90;;;;;;5035025;28;20109;-72
2021/03/25 02:36:18;;;;;;;22.73;12.48;;;7.90;99.90;;;;;;5017795;28;20040;-73
2021/03/25 02:38:54;;;;;;;24.08;13.50;;;8.00;99.90;;;;;;5018303;28;20056;-72
2021/03/25 02:41:57;;;;;;;20.92;13.07;;;8.00;99.90;;;;;;5017921;28;20032;-72
2021/03/25 02:44:35;;;;;;;21.55;12.88;;;7.80;99.90;;;;;;5014888;28;20467;-73
2021/03/25 02:47:09;;;;;;;17.90;12.45;;;7.90;99.90;;;;;;5019040;28;20381;-72
2021/03/25 02:49:57;;;;;;;25.00;13.65;;;8.00;99.90;;;;;;5018313;28;20032;-72
2021/03/25 02:52:30;;;;;;;20.30;12.73;;;8.00;99.90;;;;;;5018488;28;20052;-70
2021/03/25 02:54:59;;;;;;;23.00;12.95;;;7.90;99.90;;;;;;5018216;28;20021;-71
2021/03/25 02:57:31;;;;;;;20.48;12.38;;;7.80;99.90;;;;;;5016796;28;20026;-71
2021/03/25 02:59:59;;;;;;;;;;;7.60;99.90;;;;;;5017857;28;20030;-72
2021/03/25 03:02:31;;;;;;;22.30;13.15;;;7.50;99.90;;;;;;5016565;28;19928;-72
2021/03/25 03:05:22;;;;;;;24.27;12.90;;;7.50;99.90;;;;;;5018068;28;20455;-71
2021/03/25 03:08:11;;;;;;;20.05;13.13;;;7.60;99.90;;;;;;5018413;28;20117;-71
2021/03/25 03:10:47;;;;;;;20.27;12.32;;;7.70;99.90;;;;;;5016207;28;20093;-71
2021/03/25 03:13:16;;;;;;;28.75;13.68;;;7.70;99.90;;;;;;5018360;28;20071;-71
2021/03/25 03:15:54;;;;;;;20.13;13.30;;;7.60;99.90;;;;;;5020636;28;20132;-71
2021/03/25 03:18:43;;;;;;;18.25;11.90;;;7.60;99.90;;;;;;5051971;28;20478;-71
2021/03/25 03:21:23;;;;;;;19.88;12.82;;;7.50;99.90;;;;;;5054155;28;20021;-71
2021/03/25 03:23:50;;;;;;;20.02;13.35;;;7.50;99.90;;;;;;5052623;28;20021;-71
2021/03/25 03:26:23;;;;;;;20.33;13.27;;;7.50;99.90;;;;;;5052115;28;20112;-69
2021/03/25 03:28:54;;;;;;;22.73;12.63;;;7.40;99.90;;;;;;5054062;28;20046;-71
2021/03/25 03:31:24;;;;;;;21.60;13.07;;;7.30;99.90;;;;;;5054067;28;20029;-73
2021/03/25 03:33:55;;;;;;;18.73;12.48;;;7.30;99.90;;;;;;5055814;28;20021;-74
2021/03/25 03:36:23;;;;;;;16.58;11.90;;;7.10;99.90;;;;;;5054749;28;20024;-73
2021/03/25 03:38:59;;;;;;;20.58;12.80;;;7.30;99.90;;;;;;5055990;28;20087;-72
2021/03/25 03:41:31;;;;;;;21.73;13.43;;;7.30;99.90;;;;;;5054330;28;20044;-72
2021/03/25 03:44:02;;;;;;;22.45;14.40;;;7.30;99.90;;;;;;5058543;28;20357;-70
2021/03/25 03:46:29;;;;;;;18.58;12.55;;;7.30;99.90;;;;;;5056843;28;20516;-72
2021/03/25 03:49:42;;;;;;;18.48;13.30;;;7.20;99.90;;;;;;5057464;28;20079;-72
2021/03/25 03:52:18;;;;;;;22.13;12.80;;;7.30;99.90;;;;;;5058778;28;20033;-72
2021/03/25 03:54:48;;;;;;;21.25;12.80;;;7.20;99.90;;;;;;5058063;28;20032;-73
2021/03/25 03:57:33;;;;;;;23.30;13.45;;;7.30;99.90;;;;;;5059352;28;20035;-72
2021/03/25 04:00:22;;;;;;;20.52;12.65;;;7.20;99.90;;;;;;5058335;28;20025;-73
2021/03/25 04:03:02;;;;;;;26.48;14.48;;;7.10;99.90;;;;;;5057958;28;20454;-72
2021/03/25 04:05:41;;;;;;;22.67;12.95;;;7.00;99.90;;;;;;5057226;28;20354;-74
2021/03/25 04:08:16;;;;;;;17.77;12.05;;;7.10;99.90;;;;;;5057443;28;20029;-73
2021/03/25 04:11:05;;;;;;;19.55;12.73;;;7.20;99.90;;;;;;5056587;28;20362;-73
2021/03/25 04:13:42;;;;;;;20.70;13.48;;;7.20;99.90;;;;;;5056880;28;20040;-72
2021/03/25 04:16:09;;;;;;;24.67;13.27;;;7.20;99.90;;;;;;5056114;28;20117;-72
2021/03/25 04:18:49;;;;;;;24.88;14.60;;;7.20;99.90;;;;;;5037142;28;20013;-73
2021/03/25 04:21:37;;;;;;;19.20;12.32;;;7.20;99.90;;;;;;5037344;28;20068;-72
2021/03/25 04:24:08;;;;;;;18.58;12.45;;;7.20;99.90;;;;;;5019714;28;20021;-72
2021/03/25 04:26:48;;;;;;;23.03;13.17;;;7.10;99.90;;;;;;5036426;28;20420;-73
2021/03/25 04:29:24;;;;;;;21.40;12.45;;;7.10;99.90;;;;;;5019481;28;20367;-73
2021/03/25 04:31:49;;;;;;;18.88;11.82;;;7.00;99.90;;;;;;5036560;28;20025;-72
2021/03/25 04:34:15;;;;;;;20.15;12.88;;;7.00;99.90;;;;;;5018675;28;20021;-72
2021/03/25 04:36:43;;;;;;;23.40;13.95;;;7.00;99.90;;;;;;5018031;28;20022;-72
2021/03/25 04:39:13;;;;;;;19.50;12.40;;;7.00;99.90;;;;;;5037027;28;20036;-74
2021/03/25 04:41:41;;;;;;;22.13;12.73;;;7.10;99.90;;;;;;5020223;28;20025;-73
2021/03/25 04:44:20;;;;;;;22.25;12.65;;;7.10;99.90;;;;;;5038528;28;20087;-73
2021/03/25 04:47:13;;;;;;;19.77;13.43;;;7.10;99.90;;;;;;5019812;28;20055;-71
2021/03/25 04:49:45;;;;;;;25.17;12.90;;;7.10;99.90;;;;;;5036593;28;20021;-72
2021/03/25 04:52:25;;;;;;;17.25;12.23;;;7.00;99.90;;;;;;5049577;28;20028;-73
2021/03/25 04:54:52;;;;;;;22.33;13.35;;;6.90;99.90;;;;;;5040041;28;20017;-74
2021/03/25 04:57:31;;;;;;;31.98;12.70;;;6.90;99.90;;;;;;5040279;28;20397;-72
2021/03/25 05:00:00;;;;;;;19.23;13.02;;;7.00;99.90;;;;;;5042856;28;20025;-72
2021/03/25 05:02:27;;;;;;;19.25;12.20;;;7.00;99.90;;;;;;5043801;28;20473;-75
2021/03/25 05:04:55;;;;;;;21.00;12.40;;;7.00;99.90;;;;;;5041312;28;20028;-72
2021/03/25 05:07:34;;;;;;;25.70;11.57;;;7.10;99.90;;;;;;5038067;28;20411;-70
2021/03/25 05:10:01;;;;;;;17.55;11.77;;;7.10;99.90;;;;;;5055992;28;20017;-71
2021/03/25 05:12:27;;;;;;;21.52;12.50;;;7.00;99.90;;;;;;5036932;28;20025;-71
2021/03/25 05:15:21;;;;;;;22.52;12.50;;;7.00;99.90;;;;;;5055603;28;20025;-70
2021/03/25 05:18:12;;;;;;;18.17;12.15;;;7.00;99.90;;;;;;5051574;28;20470;-71
2021/03/25 05:20:48;;;;;;;20.38;11.73;;;6.90;99.90;;;;;;5037603;28;20013;-70
2021/03/25 05:23:27;;;;;;;19.40;12.43;;;6.80;99.90;;;;;;5056038;28;20339;-73
2021/03/25 05:26:11;;;;;;;18.65;12.32;;;6.90;99.90;;;;;;5039122;28;20057;-71
2021/03/25 05:28:43;;;;;;;19.65;12.88;;;7.00;99.90;;;;;;5039397;28;20021;-72
2021/03/25 05:31:13;;;;;;;32.25;13.30;;;6.80;99.90;;;;;;5038237;28;20033;-72
2021/03/25 05:33:39;;;;;;;21.92;12.15;;;6.70;99.90;;;;;;5055483;28;20024;-71
2021/03/25 05:36:11;;;;;;;21.73;13.55;;;6.80;99.90;;;;;;5056001;28;20032;-71
2021/03/25 05:38:38;;;;;;;23.52;12.60;;;6.80;99.90;;;;;;5055952;28;20017;-71
2021/03/25 05:41:12;;;;;;;18.23;11.38;;;6.80;99.90;;;;;;5054871;28;20033;-73
2021/03/25 05:43:58;;;;;;;23.17;13.43;;;6.80;99.90;;;;;;5054397;28;20534;-71
2021/03/25 05:46:47;;;;;;;19.40;12.43;;;6.90;99.90;;;;;;5036453;28;20028;-72
2021/03/25 05:49:28;;;;;;;19.13;12.70;;;6.90;99.90;;;;;;5054530;28;20466;-71
2021/03/25 05:52:00;;;;;;;21.02;12.63;;;7.00;99.90;;;;;;5037082;28;20025;-72
2021/03/25 05:54:31;;;;;;;21.15;13.32;;;7.00;99.90;;;;;;5054191;28;20021;-71
2021/03/25 05:57:25;;;;;;;22.63;11.85;;;7.10;99.90;;;;;;5036769;28;20029;-71
2021/03/25 06:00:29;;;;;;;31.10;13.75;;;7.30;99.90;;;;;;5035633;28;20033;-73
2021/03/25 06:03:01;;;;;;;20.38;12.25;;;7.50;99.90;;;;;;5036366;28;20025;-75
2021/03/25 06:05:27;;;;;;;21.75;12.65;;;7.60;99.90;;;;;;5036304;28;20086;-72
2021/03/25 06:08:23;;;;;;;23.05;13.63;;;7.70;99.90;;;;;;5036601;28;20466;-73
2021/03/25 06:10:57;;;;;;;20.88;13.45;;;7.70;99.90;;;;;;5036715;28;20017;-72
2021/03/25 06:13:46;;;;;;;24.90;13.18;;;7.70;99.90;;;;;;5036473;28;20035;-73
2021/03/25 06:16:30;;;;;;;22.63;13.88;;;7.40;99.90;;;;;;5036995;28;20059;-73
2021/03/25 06:19:14;;;;;;;24.17;12.27;;;7.40;99.90;;;;;;5036532;28;20024;-71
2021/03/25 06:21:49;;;;;;;22.25;12.73;;;7.40;99.90;;;;;;5036525;28;20055;-74
2021/03/25 06:24:41;;;;;;;24.77;14.38;;;7.40;99.90;;;;;;5054586;28;20056;-74
2021/03/25 06:27:44;;;;;;;21.10;12.07;;;7.30;99.90;;;;;;5054613;28;20476;-72
2021/03/25 06:30:29;;;;;;;22.38;13.90;;;7.20;99.90;;;;;;5036446;28;20029;-72
2021/03/25 06:33:08;;;;;;;25.77;14.98;;;7.40;99.90;;;;;;5037063;28;20024;-72
2021/03/25 06:35:40;;;;;;;21.52;14.82;;;7.50;99.90;;;;;;5055865;28;20021;-72
2021/03/25 06:38:17;;;;;;;22.42;13.15;;;7.70;99.90;;;;;;5055862;28;20031;-73
2021/03/25 06:41:01;;;;;;;20.20;12.48;;;7.70;99.90;;;;;;5054288;28;20477;-72
2021/03/25 06:43:37;;;;;;;20.02;12.05;;;7.70;99.90;;;;;;5036479;28;20032;-71
2021/03/25 06:46:30;;;;;;;20.10;12.77;;;7.70;99.90;;;;;;5056736;28;20032;-72
2021/03/25 06:48:59;;;;;;;19.30;12.02;;;7.80;99.90;;;;;;5022471;28;20489;-74
2021/03/25 06:51:33;;;;;;;20.20;12.07;;;8.10;99.90;;;;;;5038799;28;20024;-73
2021/03/25 06:54:21;;;;;;;17.40;11.15;;;8.40;99.90;;;;;;5037409;28;20025;-72
2021/03/25 06:56:51;;;;;;;19.70;12.23;;;8.80;99.90;;;;;;5036085;28;20032;-72
2021/03/25 06:59:24;;;;;;;20.75;11.93;;;9.10;99.90;;;;;;5053900;28;20021;-73
2021/03/25 07:01:55;;;;;;;16.63;11.75;;;9.00;99.90;;;;;;5053942;28;20025;-74
2021/03/25 07:04:31;;;;;;;17.08;12.50;;;9.00;99.70;;;;;;5056148;28;20057;-74
2021/03/25 07:07:03;;;;;;;19.73;11.85;;;8.80;99.80;;;;;;5037563;28;20028;-73
2021/03/25 07:09:33;;;;;;;;;;;9.00;99.90;;;;;;5020248;28;20021;-72
2021/03/25 07:12:07;;;;;;;17.45;12.18;;;9.10;99.40;;;;;;5055883;28;19901;-78
2021/03/25 07:14:39;;;;;;;17.45;11.38;;;9.20;99.60;;;;;;5054497;28;20032;-72
2021/03/25 07:17:09;;;;;;;16.88;11.77;;;9.30;99.10;;;;;;5057846;28;20084;-74
2021/03/25 07:19:37;;;;;;;18.55;12.23;;;9.20;99.10;;;;;;5040091;28;20033;-73
2021/03/25 07:22:28;;;;;;;24.33;12.45;;;9.20;99.10;;;;;;5023675;28;20465;-73
2021/03/25 07:25:15;;;;;;;20.73;12.50;;;9.40;99.70;;;;;;5039358;28;20021;-74
2021/03/25 07:27:41;;;;;;;25.75;12.05;;;9.10;99.90;;;;;;5039949;28;20029;-73
2021/03/25 07:30:20;;;;;;;20.17;12.15;;;9.20;99.50;;;;;;5058266;28;20154;-73
2021/03/25 07:32:48;;;;;;;18.27;13.13;;;9.40;99.20;;;;;;5039720;28;20025;-73
2021/03/25 07:35:28;;;;;;;19.85;12.80;;;9.60;99.10;;;;;;5039481;28;20032;-75
2021/03/25 07:37:55;;;;;;;17.20;11.85;;;10.10;98.30;;;;;;5039243;28;20133;-73
2021/03/25 07:40:37;;;;;;;21.38;13.25;;;10.20;97.60;;;;;;5056914;28;20139;-73
2021/03/25 07:43:23;;;;;;;19.23;13.77;;;10.20;97.40;;;;;;5038312;28;20056;-72
2021/03/25 07:46:04;;;;;;;22.08;13.45;;;10.00;97.80;;;;;;5056253;28;20025;-74
2021/03/25 07:48:30;;;;;;;19.38;12.93;;;10.30;97.50;;;;;;5056023;28;20025;-73
2021/03/25 07:51:14;;;;;;;23.75;14.70;;;10.10;97.60;;;;;;5037207;28;20086;-74
2021/03/25 07:53:40;;;;;;;21.23;11.82;;;10.30;97.30;;;;;;5055205;28;20074;-73
2021/03/25 07:56:07;;;;;;;24.20;13.77;;;10.20;97.90;;;;;;5037737;28;20028;-73
2021/03/25 07:58:43;;;;;;;22.50;12.45;;;10.30;97.40;;;;;;5037217;28;20045;-73
2021/03/25 08:01:17;;;;;;;26.77;13.73;;;10.50;96.70;;;;;;5055958;28;20166;-73
2021/03/25 08:03:44;;;;;;;24.83;13.68;;;10.90;96.30;;;;;;5038181;28;20048;-74
2021/03/25 08:06:36;;;;;;;19.05;11.90;;;10.70;96.50;;;;;;5056093;28;20074;-75
2021/03/25 08:09:10;;;;;;;34.33;13.40;;;10.50;96.50;;;;;;5056581;28;20047;-77
2021/03/25 08:11:54;;;;;;;25.63;13.35;;;10.60;96.50;;;;;;5055120;28;20017;-73
2021/03/25 08:14:32;;;;;;;30.48;15.35;;;11.30;95.90;;;;;;5038571;28;20028;-72
2021/03/25 08:17:12;;;;;;;24.30;11.95;;;11.10;95.30;;;;;;5058710;28;20374;-74
2021/03/25 08:20:07;;;;;;;18.02;12.02;;;11.40;94.80;;;;;;5038800;28;20025;-75
2021/03/25 08:22:55;;;;;;;21.38;11.65;;;11.80;94.00;;;;;;5039465;28;20025;-72
2021/03/25 08:25:57;;;;;;;24.98;13.40;;;11.30;94.20;;;;;;5058712;28;20025;-74
2021/03/25 08:28:42;;;;;;;22.77;12.10;;;11.40;94.50;;;;;;4998394;28;20113;-73
2021/03/25 08:31:28;;;;;;;18.75;11.73;;;11.60;93.80;;;;;;5040289;28;20025;-77
2021/03/25 08:34:31;;;;;;;24.83;12.32;;;12.10;93.30;;;;;;5039366;28;20171;-76
2021/03/25 08:37:04;;;;;;;22.05;10.98;;;12.40;92.30;;;;;;5026750;28;20351;-73
2021/03/25 08:39:53;;;;;;;15.88;10.57;;;12.20;92.10;;;;;;5057863;28;20032;-74
2021/03/25 08:42:40;;;;;;;17.38;11.73;;;12.40;92.00;;;;;;5051832;28;20115;-75
2021/03/25 08:45:26;;;;;;;21.52;10.82;;;12.70;91.90;;;;;;5043800;28;20041;-75
2021/03/25 08:48:16;;;;;;;21.08;11.73;;;12.50;91.20;;;;;;5019250;28;20116;-73
2021/03/25 08:50:56;;;;;;;17.42;10.13;;;12.90;91.50;;;;;;5033984;28;20083;-71
2021/03/25 08:53:43;;;;;;;16.30;10.55;;;13.30;90.40;;;;;;5014990;28;20045;-73
2021/03/25 08:56:25;;;;;;;19.30;10.65;;;13.80;88.70;;;;;;5014642;28;20425;-74
2021/03/25 08:58:56;;;;;;;13.73;10.13;;;13.70;86.80;;;;;;5014506;28;20033;-73
2021/03/25 09:01:36;;;;;;;17.50;10.95;;;13.30;88.20;;;;;;5015382;28;20036;-75
2021/03/25 09:04:06;;;;;;;13.68;10.30;;;13.40;88.10;;;;;;5032607;28;20025;-75
2021/03/25 09:06:36;;;;;;;20.27;10.10;;;13.50;88.50;;;;;;5039669;28;20026;-74
2021/03/25 09:09:27;;;;;;;14.45;9.50;;;13.60;87.50;;;;;;5022718;28;20032;-74
2021/03/25 09:11:53;;;;;;;13.73;9.85;;;13.70;86.40;;;;;;5041767;28;20038;-73
2021/03/25 09:14:22;;;;;;;15.65;9.48;;;13.80;87.00;;;;;;5040895;28;20059;-73
2021/03/25 09:16:49;;;;;;;16.02;9.35;;;13.70;85.50;;;;;;5040420;28;20108;-73
2021/03/25 09:19:22;;;;;;;15.75;9.95;;;13.80;85.60;;;;;;5042082;28;20094;-73
2021/03/25 09:21:49;;;;;;;14.75;9.32;;;14.00;85.30;;;;;;5041120;28;20021;-73
2021/03/25 09:24:15;;;;;;;15.00;8.93;;;14.10;83.70;;;;;;5039872;28;20024;-73
2021/03/25 09:26:46;;;;;;;13.98;10.18;;;14.00;83.70;;;;;;5022615;28;20420;-73
2021/03/25 09:29:13;;;;;;;16.80;10.23;;;14.20;83.30;;;;;;5028824;28;20112;-74
2021/03/25 09:31:55;;;;;;;13.35;10.27;;;14.00;83.30;;;;;;5045511;28;20043;-76
2021/03/25 09:34:24;;;;;;;13.15;9.32;;;14.20;82.30;;;;;;5023450;28;20029;-72
2021/03/25 09:37:12;;;;;;;16.98;10.55;;;14.40;81.90;;;;;;5023317;28;20494;-74
2021/03/25 09:39:38;;;;;;;21.08;10.25;;;14.30;82.40;;;;;;5039511;28;20025;-70
2021/03/25 09:42:25;;;;;;;16.73;9.68;;;14.70;84.30;;;;;;5023413;28;20026;-72
2021/03/25 09:44:51;;;;;;;14.02;10.63;;;15.00;83.90;;;;;;5036666;28;20087;-71
2021/03/25 09:47:19;;;;;;;18.63;11.00;;;15.00;81.00;;;;;;5019078;28;20063;-72
2021/03/25 09:49:53;;;;;;;16.98;10.55;;;14.50;80.50;;;;;;5033503;28;20081;-72
2021/03/25 09:52:36;;;;;;;15.75;9.80;;;14.30;79.70;;;;;;5041893;28;20143;-73
2021/03/25 09:55:01;;;;;;;15.88;10.63;;;14.30;81.20;;;;;;5041561;28;20068;-73
2021/03/25 09:57:36;;;;;;;14.40;9.88;;;14.50;81.10;;;;;;5020779;28;20053;-73
2021/03/25 10:00:22;;;;;;;12.85;9.73;;;14.50;80.50;;;;;;5017259;28;20175;-73
2021/03/25 10:02:48;;;;;;;14.20;9.18;;;15.00;80.30;;;;;;5015677;28;20033;-72
2021/03/25 10:05:20;;;;;;;14.18;9.77;;;15.60;78.90;;;;;;5020412;28;20072;-73
2021/03/25 10:08:08;;;;;;;19.92;10.95;;;15.40;76.20;;;;;;5030467;28;20041;-74
2021/03/25 10:10:36;;;;;;;22.88;11.00;;;15.30;76.60;;;;;;5020622;28;20033;-73
2021/03/25 10:13:04;;;;;;;18.08;10.82;;;15.30;76.70;;;;;;5016683;28;20033;-73
2021/03/25 10:15:41;;;;;;;14.73;9.77;;;15.30;77.10;;;;;;5030704;28;20030;-73
2021/03/25 10:18:12;;;;;;;14.75;10.25;;;15.40;75.50;;;;;;5034083;28;20064;-72
2021/03/25 10:20:47;;;;;;;14.15;10.40;;;15.60;74.30;;;;;;5023170;28;20083;-72
2021/03/25 10:23:45;;;;;;;17.60;10.88;;;15.90;75.90;;;;;;5024059;28;20079;-74
2021/03/25 10:26:11;;;;;;;18.25;10.13;;;15.60;73.80;;;;;;5013223;28;20029;-74
2021/03/25 10:28:39;;;;;;;18.20;10.15;;;15.70;74.40;;;;;;5022078;28;20021;-70
2021/03/25 10:31:27;;;;;;;16.30;11.88;;;15.60;73.80;;;;;;5016352;28;20031;-72
2021/03/25 10:34:02;;;;;;;18.95;11.10;;;15.60;73.80;;;;;;5037117;28;20095;-72
2021/03/25 10:36:54;;;;;;;18.10;11.38;;;15.70;73.50;;;;;;5041596;28;20029;-74
2021/03/25 10:39:31;;;;;;;14.88;11.05;;;15.30;75.40;;;;;;5024265;28;20116;-75
2021/03/25 10:42:09;;;;;;;18.02;11.60;;;15.20;75.00;;;;;;5037987;28;20021;-73
2021/03/25 10:44:35;;;;;;;20.05;11.15;;;15.60;75.10;;;;;;5022657;28;20032;-72
2021/03/25 10:47:19;;;;;;;17.92;11.10;;;15.70;74.70;;;;;;5019151;28;20403;-71
2021/03/25 10:49:56;;;;;;;21.55;11.35;;;16.10;75.10;;;;;;5024024;28;20032;-71
2021/03/25 10:52:31;;;;;;;14.23;9.98;;;16.00;73.30;;;;;;5011154;28;20490;-72
2021/03/25 10:55:02;;;;;;;17.60;10.80;;;16.20;71.50;;;;;;5021180;28;20018;-73
2021/03/25 10:57:29;;;;;;;18.15;10.48;;;16.10;71.70;;;;;;5039830;28;20116;-72
2021/03/25 11:00:04;;;;;;;16.30;10.90;;;16.20;71.10;;;;;;5014493;28;20036;-71
2021/03/25 11:02:39;;;;;;;15.00;10.65;;;16.30;71.60;;;;;;5031501;28;20045;-72
2021/03/25 11:05:16;;;;;;;14.65;9.57;;;16.10;71.80;;;;;;5018253;28;20021;-73
2021/03/25 11:07:45;;;;;;;18.52;10.95;;;16.20;71.20;;;;;;5018501;28;20087;-72
2021/03/25 11:10:36;;;;;;;16.25;10.65;;;15.80;72.20;;;;;;5022741;28;20029;-74
2021/03/25 11:13:15;;;;;;;18.73;10.77;;;15.70;71.90;;;;;;5019492;28;20071;-71
2021/03/25 11:16:01;;;;;;;13.75;8.77;;;15.60;73.60;;;;;;5037582;28;20021;-73
2021/03/25 11:18:43;;;;;;;16.85;9.95;;;15.90;75.10;;;;;;5035062;28;20083;-74
2021/03/25 11:21:26;;;;;;;15.73;10.38;;;15.90;72.70;;;;;;5022183;28;20395;-72
2021/03/25 11:24:15;;;;;;;21.58;10.57;;;16.10;72.70;;;;;;5039853;28;20116;-74
2021/03/25 11:26:41;;;;;;;16.65;10.55;;;16.10;71.40;;;;;;5017400;28;20466;-73
2021/03/25 11:29:09;;;;;;;19.67;11.70;;;16.00;71.90;;;;;;5014543;28;20087;-72
2021/03/25 11:31:36;;;;;;;15.27;10.57;;;15.70;72.40;;;;;;5020600;28;20190;-72
2021/03/25 11:34:03;;;;;;;17.35;11.60;;;15.80;73.20;;;;;;5027280;28;20152;-75
2021/03/25 11:36:44;;;;;;;15.60;10.20;;;15.60;72.90;;;;;;5018866;28;20033;-75
2021/03/25 11:39:19;;;;;;;17.85;10.73;;;15.40;74.30;;;;;;5043457;28;20449;-73
2021/03/25 11:41:47;;;;;;;17.63;10.55;;;15.30;74.80;;;;;;5018528;28;20800;-74
2021/03/25 11:44:34;;;;;;;19.17;10.15;;;15.40;75.00;;;;;;5031870;28;20021;-73
2021/03/25 11:47:34;;;;;;;14.65;10.23;;;15.40;74.90;;;;;;5034376;28;20075;-72
2021/03/25 11:50:26;;;;;;;18.52;10.93;;;15.20;75.40;;;;;;5034028;28;20025;-74
2021/03/25 11:52:58;;;;;;;21.45;12.13;;;15.30;75.50;;;;;;5041619;28;20044;-73
2021/03/25 11:55:52;;;;;;;16.35;10.07;;;15.30;75.40;;;;;;5023086;28;20056;-75
2021/03/25 11:58:21;;;;;;;17.08;10.88;;;15.50;75.00;;;;;;5014638;28;20042;-72
2021/03/25 12:01:05;;;;;;;14.85;9.90;;;15.60;74.20;;;;;;5014406;28;20103;-73
2021/03/25 12:03:52;;;;;;;17.08;11.70;;;15.70;75.40;;;;;;5034752;28;20029;-75
2021/03/25 12:06:30;;;;;;;16.65;10.25;;;15.80;74.50;;;;;;5028871;28;20025;-72
2021/03/25 12:09:07;;;;;;;14.95;10.70;;;16.00;77.90;;;;;;5034687;28;20033;-73
2021/03/25 12:11:38;;;;;;;22.30;12.15;;;16.40;78.20;;;;;;5018532;28;20362;-73
2021/03/25 12:14:05;;;;;;;19.23;12.10;;;16.70;73.00;;;;;;5014258;28;20037;-73
2021/03/25 12:16:33;;;;;;;22.67;11.82;;;17.00;72.40;;;;;;5014655;28;20030;-72
2021/03/25 12:18:59;;;;;;;23.40;12.48;;;17.30;71.20;;;;;;5014674;28;20025;-73
2021/03/25 12:21:25;;;;;;;22.85;13.15;;;17.30;71.10;;;;;;5015222;28;20022;-72
2021/03/25 12:23:56;;;;;;;22.05;12.27;;;17.60;69.10;;;;;;5013844;28;20424;-75
2021/03/25 12:26:22;;;;;;;24.90;12.05;;;17.40;69.70;;;;;;5033261;28;20352;-73
2021/03/25 12:28:48;;;;;;;19.52;11.13;;;17.40;69.60;;;;;;5025452;28;20031;-73
2021/03/25 12:31:23;;;;;;;17.90;12.05;;;17.40;70.70;;;;;;5053033;28;20146;-74
2021/03/25 12:33:50;;;;;;;22.90;12.10;;;17.40;69.50;;;;;;5045768;28;20025;-72
2021/03/25 12:36:16;;;;;;;17.40;11.38;;;17.60;70.10;;;;;;5017379;28;20036;-73
2021/03/25 12:38:42;;;;;;;18.48;12.02;;;17.70;68.10;;;;;;5038840;28;20447;-73
2021/03/25 12:41:12;;;;;;;23.30;12.88;;;18.10;68.00;;;;;;5027585;28;20140;-73
2021/03/25 12:43:38;;;;;;;20.45;12.63;;;18.50;68.10;;;;;;5028802;28;20086;-74
2021/03/25 12:46:06;;;;;;;18.90;11.70;;;18.50;69.10;;;;;;5030207;28;20076;-74
2021/03/25 12:48:33;;;;;;;21.40;12.05;;;19.10;65.30;;;;;;5017814;28;20029;-73
2021/03/25 12:51:00;;;;;;;19.48;12.23;;;19.40;64.90;;;;;;5019722;28;20362;-76
2021/03/25 12:53:29;;;;;;;18.17;12.77;;;19.30;63.60;;;;;;5020345;28;20093;-74
2021/03/25 12:55:57;;;;;;;18.48;12.00;;;18.80;63.80;;;;;;5038240;28;20398;-75
2021/03/25 12:58:33;;;;;;;20.35;13.75;;;18.70;65.20;;;;;;5040071;28;20118;-73
2021/03/25 13:01:05;;;;;;;19.90;13.82;;;18.90;65.30;;;;;;5022421;28;20034;-73
2021/03/25 13:03:31;;;;;;;21.70;12.77;;;19.20;63.50;;;;;;5014111;28;20060;-74
2021/03/25 13:05:57;;;;;;;22.65;12.88;;;18.90;64.00;;;;;;5013899;28;20057;-74
2021/03/25 13:08:22;;;;;;;21.60;11.80;;;19.20;64.30;;;;;;5032184;28;20510;-73
2021/03/25 13:10:48;;;;;;;21.77;14.32;;;19.40;63.90;;;;;;5047271;28;20029;-72
2021/03/25 13:13:15;;;;;;;23.35;14.55;;;19.40;63.50;;;;;;5023935;28;20040;-74
2021/03/25 13:15:42;;;;;;;20.00;12.55;;;19.30;62.50;;;;;;5034177;28;20026;-72